Map

Track Data

SID SEASON NUMBER BASIN SUBBASIN NAME ISO_TIME NATURE LAT LON WMO_WIND WMO_PRES WMO_AGENCY TRACK_TYPE DIST2LAND LANDFALL IFLAG USA_AGENCY USA_ATCF_ID USA_LAT USA_LON USA_RECORD USA_STATUS USA_WIND USA_PRES USA_SSHS USA_R34_NE USA_R34_SE USA_R34_SW USA_R34_NW USA_R50_NE USA_R50_SE USA_R50_SW USA_R50_NW USA_R64_NE USA_R64_SE USA_R64_SW USA_R64_NW USA_POCI USA_ROCI USA_RMW USA_EYE TOKYO_LAT TOKYO_LON TOKYO_GRADE TOKYO_WIND TOKYO_PRES TOKYO_R50_DIR TOKYO_R50_LONG TOKYO_R50_SHORT TOKYO_R30_DIR TOKYO_R30_LONG TOKYO_R30_SHORT TOKYO_LAND CMA_LAT CMA_LON CMA_CAT CMA_WIND CMA_PRES HKO_LAT HKO_LON HKO_CAT HKO_WIND HKO_PRES NEWDELHI_LAT NEWDELHI_LON NEWDELHI_GRADE NEWDELHI_WIND NEWDELHI_PRES NEWDELHI_CI NEWDELHI_DP NEWDELHI_POCI REUNION_LAT REUNION_LON REUNION_TYPE REUNION_WIND REUNION_PRES REUNION_TNUM REUNION_CI REUNION_RMW REUNION_R34_NE REUNION_R34_SE REUNION_R34_SW REUNION_R34_NW REUNION_R50_NE REUNION_R50_SE REUNION_R50_SW REUNION_R50_NW REUNION_R64_NE REUNION_R64_SE REUNION_R64_SW REUNION_R64_NW BOM_LAT BOM_LON BOM_TYPE BOM_WIND BOM_PRES BOM_TNUM BOM_CI BOM_RMW BOM_R34_NE BOM_R34_SE BOM_R34_SW BOM_R34_NW BOM_R50_NE BOM_R50_SE BOM_R50_SW BOM_R50_NW BOM_R64_NE BOM_R64_SE BOM_R64_SW BOM_R64_NW BOM_ROCI BOM_POCI BOM_EYE BOM_POS_METHOD BOM_PRES_METHOD NADI_LAT NADI_LON NADI_CAT NADI_WIND NADI_PRES WELLINGTON_LAT WELLINGTON_LON WELLINGTON_WIND WELLINGTON_PRES DS824_LAT DS824_LON DS824_STAGE DS824_WIND DS824_PRES TD9636_LAT TD9636_LON TD9636_STAGE TD9636_WIND TD9636_PRES TD9635_LAT TD9635_LON TD9635_WIND TD9635_PRES TD9635_ROCI NEUMANN_LAT NEUMANN_LON NEUMANN_CLASS NEUMANN_WIND NEUMANN_PRES MLC_LAT MLC_LON MLC_CLASS MLC_WIND MLC_PRES USA_GUST BOM_GUST BOM_GUST_PER REUNION_GUST REUNION_GUST_PER USA_SEAHGT USA_SEARAD_NE USA_SEARAD_SE USA_SEARAD_SW USA_SEARAD_NW STORM_SPEED STORM_DIR
1930298N10075 1930 52 NI AS NOT_NAMED 1930-10-25 00:00:00 TS 10.4000 74.6000 main 149 149 _________O____ -1 10.4000 74.6000 TC 30 3 296
1930298N10075 1930 52 NI AS NOT_NAMED 1930-10-25 03:00:00 TS 10.4583 74.4817 main 156 156 _________PO___ -1 10.4875 74.4225 TC 30 10.4000 74.6000 1 4 297
1930298N10075 1930 52 NI AS NOT_NAMED 1930-10-25 06:00:00 TS 10.5700 74.2632 main 174 174 _________OP___ -1 10.6000 74.2000 TC 30 10.5251 74.3579 1 5 297
1930298N10075 1930 52 NI AS NOT_NAMED 1930-10-25 09:00:00 TS 10.7072 73.9954 main 195 195 _________PP___ -1 10.7500 73.9075 TC 30 10.6501 74.1126 1 6 297
1930298N10075 1930 52 NI AS NOT_NAMED 1930-10-25 12:00:00 TS 10.8375 73.7305 main 211 204 _________OP___ -1 10.9000 73.6000 TC 30 10.7750 73.8610 1 6 295
1930298N10075 1930 52 NI AS NOT_NAMED 1930-10-25 15:00:00 TS 10.9500 73.4712 main 222 216 _________PO___ -1 11.0000 73.3424 TC 30 10.9000 73.6000 1 6 294
1930298N10075 1930 52 NI AS NOT_NAMED 1930-10-25 18:00:00 TS 11.0625 73.2148 main 240 240 _________OP___ -1 11.1000 73.1000 TC 30 11.0250 73.3297 1 6 296
1930298N10075 1930 52 NI AS NOT_NAMED 1930-10-25 21:00:00 TS 11.2000 72.9488 main 264 264 _________PP___ -1 11.2500 72.8350 TC 30 11.1501 73.0625 1 6 299
1930298N10075 1930 52 NI AS NOT_NAMED 1930-10-26 00:00:00 TS 11.3375 72.7070 main 279 274 _________OP___ -1 11.4000 72.6000 TC 30 11.2751 72.8141 1 5 300
1930298N10075 1930 52 NI AS NOT_NAMED 1930-10-26 03:00:00 TS 11.4500 72.5137 main 293 288 _________PO___ -1 11.5000 72.4275 TC 30 11.4000 72.6000 1 4 304
1930298N10075 1930 52 NI AS NOT_NAMED 1930-10-26 06:00:00 TS 11.5624 72.3654 main 293 293 _________OP___ -1 11.6000 72.3000 TC 30 11.5249 72.4309 1 4 314
1930298N10075 1930 52 NI AS NOT_NAMED 1930-10-26 09:00:00 TS 11.6999 72.2449 main 308 304 _________PP___ -1 11.7500 72.1925 TC 30 11.6499 72.2974 1 4 322
1930298N10075 1930 52 NI AS NOT_NAMED 1930-10-26 12:00:00 TS 11.8375 72.1451 main 314 310 _________OP___ -1 11.9000 72.1000 TC 30 11.7749 72.1903 1 3 322
1930298N10075 1930 52 NI AS NOT_NAMED 1930-10-26 15:00:00 TS 11.9500 72.0462 main 317 317 _________PO___ -1 12.0000 71.9925 TC 30 11.9000 72.1000 1 3 318
1930298N10075 1930 52 NI AS NOT_NAMED 1930-10-26 18:00:00 TS 12.0422 71.9573 main 317 317 _________OP___ -1 12.1000 71.9000 TC 30 11.9843 72.0145 1 2 323
1930298N10075 1930 52 NI AS NOT_NAMED 1930-10-26 21:00:00 TS 12.1437 71.8961 main 324 319 _________PP___ -1 12.2125 71.8499 TC 30 12.0750 71.9422 1 3 335
1930298N10075 1930 52 NI AS NOT_NAMED 1930-10-27 00:00:00 TS 12.3015 71.8369 main 330 327 _________OP___ -1 12.4000 71.8000 TC 30 12.2031 71.8739 1 4 341
1930298N10075 1930 52 NI AS NOT_NAMED 1930-10-27 03:00:00 TS 12.5563 71.7538 main 324 324 _________PO___ -1 12.7125 71.7075 TC 31 12.4000 71.8000 1 6 343
1930298N10075 1930 52 NI AS NOT_NAMED 1930-10-27 06:00:00 TS 12.9016 71.6516 main 328 317 _________OP___ -1 13.1000 71.6000 TC 32 12.7032 71.7032 1 8 345
1930298N10075 1930 52 NI AS NOT_NAMED 1930-10-27 09:00:00 TS 13.2875 71.5501 main 317 302 _________PP___ -1 13.5000 71.5000 TC 33 13.0751 71.6002 1 8 346
1930298N10075 1930 52 NI AS NOT_NAMED 1930-10-27 12:00:00 TS 13.6922 71.4485 main 311 291 _________OP___ -1 13.9000 71.4000 TC 34 13.4844 71.4970 1 8 346
1930298N10075 1930 52 NI AS NOT_NAMED 1930-10-27 15:00:00 TS 14.0750 71.3462 main 301 290 _________PO___ -1 14.2500 71.2925 TC 36 13.9000 71.4000 2 8 346
1930298N10075 1930 52 NI AS NOT_NAMED 1930-10-27 18:00:00 TS 14.4334 71.2588 main 290 282 _________OP___ -1 14.6000 71.2000 TC 39 14.2669 71.3177 2 8 349
1930298N10075 1930 52 NI AS NOT_NAMED 1930-10-27 21:00:00 TS 14.8137 71.1961 main 282 270 _________PP___ -1 14.9925 71.1499 TC 42 14.6350 71.2423 2 8 351
1930298N10075 1930 52 NI AS NOT_NAMED 1930-10-28 00:00:00 TS 15.2053 71.1354 main 276 255 _________OP___ -1 15.4000 71.1000 TC 45 15.0106 71.1708 2 8 350
1930298N10075 1930 52 NI AS NOT_NAMED 1930-10-28 03:00:00 TS 15.5963 71.0500 main 255 251 _________PO___ -1 15.7925 71.0000 TC 45 15.4000 71.1000 3 8 348
1930298N10075 1930 52 NI AS NOT_NAMED 1930-10-28 06:00:00 TS 16.0134 70.9505 main 251 251 _________OP___ -1 16.2000 70.9000 TC 45 15.8269 71.0009 3 9 348
1930298N10075 1930 52 NI AS NOT_NAMED 1930-10-28 09:00:00 TS 16.4613 70.8665 main 255 255 _________PP___ -1 16.6575 70.8275 TC 45 16.2650 70.9055 3 9 351
1930298N10075 1930 52 NI AS NOT_NAMED 1930-10-28 12:00:00 TS 16.8978 70.8161 main 256 244 _________OP___ -1 17.1000 70.8000 TC 45 16.6956 70.8323 3 8 356
1930298N10075 1930 52 NI AS NOT_NAMED 1930-10-28 15:00:00 TS 17.2862 70.8137 main 244 232 _________PO___ -1 17.4725 70.8275 TC 45 17.1000 70.8000 3 7 0
1930298N10075 1930 52 NI AS NOT_NAMED 1930-10-28 18:00:00 TS 17.5983 70.8381 main 232 216 _________OP___ -1 17.8000 70.9000 TC 45 17.3966 70.7762 3 6 6
1930298N10075 1930 52 NI AS NOT_NAMED 1930-10-28 21:00:00 TS 17.8609 70.8751 main 214 200 _________PP___ -1 18.0474 70.9481 TC 45 17.6744 70.8022 3 6 15
1930298N10075 1930 52 NI AS NOT_NAMED 1930-10-29 00:00:00 TS 18.1951 71.0010 main 200 159 _________OP___ -1 18.4000 71.1000 TC 45 17.9901 70.9020 3 9 24
1930298N10075 1930 52 NI AS NOT_NAMED 1930-10-29 03:00:00 TS 18.7238 71.2736 main 159 115 _________PO___ -1 19.0476 71.4472 TC 41 18.4000 71.1000 3 14 27
1930298N10075 1930 52 NI AS NOT_NAMED 1930-10-29 06:00:00 TS 19.4035 71.6514 main 105 73 _________OP___ -1 19.8000 71.9000 TC 37 19.0070 71.4027 3 16 29
1930298N10075 1930 52 NI AS NOT_NAMED 1930-10-29 09:00:00 TS 20.0925 72.0705 main 66 31 _________PP___ -1 20.4799 72.3352 TC 33 19.7052 71.8057 3 16 32
1930298N10075 1930 52 NI AS NOT_NAMED 1930-10-29 12:00:00 TS 20.7628 72.5406 main 30 0 _________OP___ -1 21.1000 72.8000 TC 30 20.4257 72.2811 3 16 35
1930298N10075 1930 52 NI AS NOT_NAMED 1930-10-29 15:00:00 TS 21.3649 73.0390 main 0 0 _________PO___ -1 21.6298 73.2780 TC 30 21.1000 72.8000 1 14 40
1930298N10075 1930 52 NI AS NOT_NAMED 1930-10-29 18:00:00 TS 21.8577 73.5353 main 0 0 _________OP___ -1 22.1000 73.8000 TC 30 21.6761 73.3368 1 14 45
1930298N10075 1930 52 NI AS NOT_NAMED 1930-10-29 21:00:00 TS 22.3208 74.0831 main 0 0 _________PP___ -1 22.5531 74.3816 TC 30 22.1660 73.8842 1 13 49
1930298N10075 1930 52 NI AS NOT_NAMED 1930-10-30 00:00:00 TS 22.7320 74.6263 main 0 0 _________OP___ -1 23.0000 75.0000 TC 30 22.5980 74.4394 1 11 51
1930298N10075 1930 52 NI AS NOT_NAMED 1930-10-30 03:00:00 NR 23.0000 75.0000 main 0 __________O___ -1 TC 23.0000 75.0000 1 9 52

About IBTrACS Database

This database is a web-friendly format of International Best Track Archive for Climate Stewardship (IBTrACS), a global best track data archive curated by NOAA dating back to 1842.

Updated: 2021-12-06